Time;durP1;ratioP1;P1;durP2;ratioP2;P2;SDS_P1;SDS_P2;PMS_P1;PMS_P2;Temp;Humidity;BMP_temperature;BMP_pressure;BME280_temperature;BME280_humidity;BME280_pressure;Samples;Min_cycle;Max_cycle;Signal;HPM_P1;HPM_P2
2022/08/20 00:01:06;;;;;;;;;25.00;24.00;;;;;25.50;69.82;100401.30;110636;1261;13875;-48
2022/08/20 00:03:35;;;;;;;;;32.33;26.67;;;;;25.45;70.02;100404.91;110683;1262;13095;-48
2022/08/20 00:06:03;;;;;;;;;29.67;27.00;;;;;25.49;70.03;100408.66;110679;1262;15180;-50
2022/08/20 00:08:30;;;;;;;;;28.33;25.67;;;;;25.48;69.91;100411.99;110675;1262;16036;-50
2022/08/20 00:10:58;;;;;;;;;25.00;24.00;;;;;25.46;70.06;100413.44;110691;1261;15854;-49
2022/08/20 00:13:25;;;;;;;;;26.00;25.00;;;;;25.38;70.34;100413.17;110691;1262;14785;-49
2022/08/20 00:15:52;;;;;;;;;24.00;23.50;;;;;25.46;70.23;100414.02;110550;1264;16019;-48
2022/08/20 00:18:19;;;;;;;;;28.50;25.00;;;;;25.38;70.58;100424.68;110547;1264;13122;-48
2022/08/20 00:20:47;;;;;;;;;28.00;26.00;;;;;25.45;70.52;100429.98;110534;1262;14201;-48
2022/08/20 00:23:14;;;;;;;;;28.00;24.00;;;;;25.43;70.57;100431.20;110521;1263;15081;-49
2022/08/20 00:25:41;;;;;;;;;32.00;30.00;;;;;25.33;71.05;100436.09;110503;1262;14893;-48
2022/08/20 00:28:09;;;;;;;;;34.00;31.50;;;;;25.33;71.17;100436.27;110671;1261;15553;-49
2022/08/20 00:30:37;;;;;;;;;28.00;28.00;;;;;25.44;71.22;100438.67;110627;1262;13193;-48
2022/08/20 00:33:04;;;;;;;;;34.33;28.00;;;;;25.39;71.05;100445.06;110623;1262;16069;-45
2022/08/20 00:35:31;;;;;;;;;30.33;29.00;;;;;25.21;71.90;100449.88;110615;1262;14920;-47
2022/08/20 00:37:58;;;;;;;;;27.33;27.00;;;;;25.27;71.81;100448.21;110681;1262;15103;-47
2022/08/20 00:40:26;;;;;;;;;30.67;29.00;;;;;25.38;71.52;100440.30;110678;1262;14747;-47
2022/08/20 00:42:54;;;;;;;;;30.00;26.33;;;;;25.53;70.94;100429.58;110722;1261;13239;-48
2022/08/20 00:45:21;;;;;;;;;28.67;26.33;;;;;25.41;71.05;100430.37;110530;1264;13187;-48
2022/08/20 00:47:48;;;;;;;;;30.50;29.00;;;;;25.14;71.85;100439.80;110657;1261;14666;-48
2022/08/20 00:50:16;;;;;;;;;30.67;30.00;;;;;25.23;71.91;100448.90;110704;1262;13975;-49
2022/08/20 00:52:43;;;;;;;;;28.00;26.00;;;;;25.23;72.00;100455.75;110685;1262;15273;-48
2022/08/20 00:55:10;;;;;;;;;27.33;24.67;;;;;25.14;72.07;100454.77;110651;1262;14250;-52
2022/08/20 00:57:38;;;;;;;;;26.00;24.00;;;;;24.98;72.32;100453.71;110730;1262;13207;-48
2022/08/20 01:00:07;;;;;;;;;26.00;22.00;;;;;24.89;72.57;100448.19;110698;1262;13412;-50
2022/08/20 01:02:34;;;;;;;;;24.33;24.00;;;;;24.79;72.64;100446.33;110684;1261;14078;-48
2022/08/20 01:05:02;;;;;;;;;23.67;21.67;;;;;25.02;72.03;100451.77;110681;1261;14935;-53
2022/08/20 01:07:33;;;;;;;;;24.00;22.67;;;;;24.96;71.72;100445.48;110662;1262;17245;-54
2022/08/20 01:10:00;;;;;;;;;26.00;23.00;;;;;24.76;71.82;100441.01;110661;1261;15259;-49
2022/08/20 01:12:28;;;;;;;;;24.00;21.00;;;;;24.74;71.81;100434.22;110702;1261;10395;-53
2022/08/20 01:14:57;;;;;;;;;25.00;23.00;;;;;24.81;71.27;100427.45;110666;1261;14352;-47
2022/08/20 01:17:24;;;;;;;;;23.00;20.67;;;;;24.72;71.44;100430.98;110688;1262;13677;-51
2022/08/20 01:19:51;;;;;;;;;23.00;21.00;;;;;24.79;71.16;100430.02;110504;1264;14339;-52
2022/08/20 01:25:04;;;;;;;;;25.33;20.67;;;;;24.91;70.78;100442.50;110688;1262;14558;-48
2022/08/20 01:27:32;;;;;;;;;20.33;19.33;;;;;24.85;70.70;100444.05;110743;1262;13082;-49
2022/08/20 01:29:59;;;;;;;;;23.33;17.00;;;;;24.73;70.94;100446.33;110682;1262;15022;-48
2022/08/20 01:32:27;;;;;;;;;20.00;18.50;;;;;24.53;71.42;100446.02;110664;1262;15488;-48
2022/08/20 01:34:54;;;;;;;;;18.33;16.67;;;;;24.49;71.64;100441.41;110563;1262;15001;-47
2022/08/20 01:37:21;;;;;;;;;19.00;16.00;;;;;24.51;71.84;100432.58;110644;1261;14447;-47
2022/08/20 01:39:49;;;;;;;;;21.00;18.67;;;;;24.44;71.96;100430.16;110762;1261;13113;-49
2022/08/20 01:42:16;;;;;;;;;16.67;15.67;;;;;24.40;71.99;100433.61;110587;1262;14964;-47
2022/08/20 01:44:43;;;;;;;;;18.33;16.00;;;;;24.31;71.98;100433.84;110642;1262;12926;-48
2022/08/20 01:47:11;;;;;;;;;17.00;15.33;;;;;24.37;71.95;100433.75;110680;1262;15794;-48
2022/08/20 01:49:38;;;;;;;;;19.33;19.33;;;;;24.21;72.03;100431.52;110694;1261;15221;-48
2022/08/20 01:52:06;;;;;;;;;19.67;18.67;;;;;24.03;72.41;100431.01;110680;1261;15025;-47
2022/08/20 01:54:33;;;;;;;;;19.33;19.33;;;;;24.08;72.63;100420.31;110739;1261;13154;-48
2022/08/20 01:57:01;;;;;;;;;17.67;17.67;;;;;24.12;72.39;100422.30;110689;1261;15359;-49
2022/08/20 01:59:28;;;;;;;;;19.50;17.50;;;;;24.06;72.76;100429.75;110680;1261;14423;-48
2022/08/20 02:01:55;;;;;;;;;21.33;19.67;;;;;23.94;73.25;100430.96;110659;1261;15190;-45
2022/08/20 02:04:22;;;;;;;;;24.50;21.00;;;;;23.97;73.50;100437.98;110633;1262;14883;-51
2022/08/20 02:06:50;;;;;;;;;19.67;18.00;;;;;24.20;73.02;100442.09;110733;1261;13081;-48
2022/08/20 02:09:17;;;;;;;;;19.33;15.33;;;;;24.21;72.84;100438.98;110537;1260;14655;-47
2022/08/20 02:11:46;;;;;;;;;19.67;18.33;;;;;24.15;73.27;100441.83;110659;1261;15065;-50
2022/08/20 02:14:13;;;;;;;;;17.67;16.33;;;;;24.05;73.72;100447.98;110703;1262;15500;-48
2022/08/20 02:16:41;;;;;;;;;20.00;17.00;;;;;24.05;74.12;100441.97;110665;1262;14365;-44
2022/08/20 02:19:11;;;;;;;;;21.33;18.00;;;;;23.97;74.46;100449.01;110716;1261;14712;-47
2022/08/20 02:21:38;;;;;;;;;18.00;18.00;;;;;24.13;74.41;100448.39;110729;1262;18222;-45
2022/08/20 02:24:06;;;;;;;;;19.00;18.67;;;;;24.35;73.64;100446.99;110691;1261;14363;-49
2022/08/20 02:26:36;;;;;;;;;19.50;19.00;;;;;24.20;73.87;100444.88;110696;1262;16980;-47
2022/08/20 02:29:03;;;;;;;;;19.33;18.67;;;;;24.23;74.24;100439.91;110695;1262;15557;-47
2022/08/20 02:31:31;;;;;;;;;19.33;18.00;;;;;24.18;74.30;100437.58;110664;1261;14601;-47
2022/08/20 02:33:58;;;;;;;;;17.67;16.33;;;;;24.10;74.82;100441.44;110709;1261;13091;-48
2022/08/20 02:36:26;;;;;;;;;19.67;19.00;;;;;24.08;75.08;100443.41;110719;1262;13963;-49
2022/08/20 02:38:53;;;;;;;;;24.00;20.67;;;;;24.16;75.15;100438.29;110706;1262;14082;-48
2022/08/20 02:41:21;;;;;;;;;24.00;19.00;;;;;24.37;74.57;100436.37;110693;1262;15222;-49
2022/08/20 02:43:48;;;;;;;;;21.00;18.00;;;;;24.39;74.19;100442.83;110672;1262;15153;-48
2022/08/20 02:46:17;;;;;;;;;22.00;20.00;;;;;24.26;74.82;100448.16;110622;1262;14526;-50
2022/08/20 02:48:45;;;;;;;;;20.00;18.00;;;;;24.30;74.71;100452.03;110714;1261;13195;-52
2022/08/20 02:51:12;;;;;;;;;19.00;17.67;;;;;24.30;74.87;100450.59;110578;1262;13785;-47
2022/08/20 02:53:40;;;;;;;;;19.00;18.33;;;;;24.44;74.36;100442.08;110673;1261;13139;-52
2022/08/20 02:56:07;;;;;;;;;22.33;19.67;;;;;24.31;74.68;100440.11;110658;1261;13891;-49
2022/08/20 02:58:34;;;;;;;;;19.00;18.00;;;;;24.57;74.09;100434.52;110682;1261;14586;-47
2022/08/20 03:01:02;;;;;;;;;20.67;19.00;;;;;24.85;72.89;100430.09;110731;1262;13335;-49
2022/08/20 03:03:29;;;;;;;;;23.00;19.67;;;;;24.80;72.68;100420.77;110542;1262;13334;-48
2022/08/20 03:05:57;;;;;;;;;18.67;18.00;;;;;24.66;73.11;100419.08;110538;1264;15161;-47
2022/08/20 03:08:24;;;;;;;;;20.50;19.00;;;;;24.54;73.57;100428.95;110502;1264;15516;-51
2022/08/20 03:10:52;;;;;;;;;19.00;18.00;;;;;24.55;73.66;100424.36;110514;1264;15359;-48
2022/08/20 03:13:19;;;;;;;;;19.00;17.00;;;;;24.57;73.67;100421.44;110514;1264;13217;-48
2022/08/20 03:15:47;;;;;;;;;20.00;20.00;;;;;24.47;73.73;100419.96;110531;1264;13323;-54
2022/08/20 03:18:14;;;;;;;;;23.00;21.33;;;;;24.28;74.12;100419.02;110340;1264;14629;-51
2022/08/20 03:20:41;;;;;;;;;26.00;22.33;;;;;24.27;74.49;100425.59;110370;1264;15688;-45
2022/08/20 03:23:08;;;;;;;;;20.67;19.33;;;;;24.47;74.13;100425.57;110505;1265;13736;-47
2022/08/20 03:25:36;;;;;;;;;23.00;20.50;;;;;24.59;73.70;100425.27;110483;1264;14954;-51
2022/08/20 03:28:03;;;;;;;;;26.00;25.33;;;;;24.62;73.56;100419.42;110520;1265;15489;-49
2022/08/20 03:30:30;;;;;;;;;24.00;22.50;;;;;24.70;73.23;100418.62;110530;1264;13204;-48
2022/08/20 03:32:57;;;;;;;;;26.33;24.33;;;;;24.63;73.42;100422.89;110511;1264;14919;-48
2022/08/20 03:35:25;;;;;;;;;22.00;19.00;;;;;24.58;73.74;100429.50;110495;1264;14491;-47
2022/08/20 03:37:52;;;;;;;;;20.00;20.00;;;;;24.49;74.00;100443.11;110516;1264;15069;-48
2022/08/20 03:40:19;;;;;;;;;19.00;19.00;;;;;24.37;74.31;100449.73;110519;1265;15443;-49
2022/08/20 03:42:46;;;;;;;;;20.33;18.00;;;;;24.27;74.57;100447.88;110572;1264;13323;-50
2022/08/20 03:45:13;;;;;;;;;18.00;17.50;;;;;24.32;74.55;100442.67;110539;1264;15326;-47
2022/08/20 03:47:41;;;;;;;;;22.67;19.00;;;;;24.38;74.39;100440.19;110463;1264;15370;-48
2022/08/20 03:50:08;;;;;;;;;18.67;17.33;;;;;24.21;74.86;100436.03;110504;1264;15002;-48
2022/08/20 03:52:35;;;;;;;;;21.00;20.00;;;;;24.23;74.98;100447.95;110513;1264;15509;-49
2022/08/20 03:55:02;;;;;;;;;23.00;20.00;;;;;24.11;75.34;100445.10;110549;1264;14590;-52
2022/08/20 03:57:30;;;;;;;;;21.33;20.33;;;;;24.11;75.49;100441.46;110495;1264;13187;-49
2022/08/20 03:59:57;;;;;;;;;20.00;20.00;;;;;24.03;75.78;100439.69;110511;1265;15431;-48
2022/08/20 04:02:26;;;;;;;;;18.67;17.67;;;;;24.05;75.90;100442.34;110530;1264;15343;-50
2022/08/20 04:04:54;;;;;;;;;20.33;19.00;;;;;24.15;75.71;100439.34;110559;1264;15604;-49
2022/08/20 04:07:24;;;;;;;;;22.00;21.00;;;;;24.13;75.66;100437.94;110512;1264;14730;-49
2022/08/20 04:09:52;;;;;;;;;23.67;22.00;;;;;23.92;76.27;100437.16;110576;1264;13223;-44
2022/08/20 04:12:19;;;;;;;;;22.00;19.00;;;;;23.67;77.22;100433.11;110507;1265;18041;-48
2022/08/20 04:14:46;;;;;;;;;23.00;23.00;;;;;23.55;78.00;100429.78;110478;1264;15503;-46
2022/08/20 04:17:14;;;;;;;;;24.33;19.67;;;;;23.71;77.94;100428.64;110489;1265;14474;-47
2022/08/20 04:19:41;;;;;;;;;23.67;23.67;;;;;23.68;77.79;100432.60;110510;1264;15753;-48
2022/08/20 04:22:09;;;;;;;;;22.00;21.50;;;;;23.47;78.57;100434.65;110522;1264;15586;-48
2022/08/20 04:24:37;;;;;;;;;21.00;20.00;;;;;23.63;78.36;100434.41;110532;1264;13116;-48
2022/08/20 04:27:04;;;;;;;;;22.00;19.00;;;;;23.86;77.79;100437.35;110524;1264;14706;-48
2022/08/20 04:29:31;;;;;;;;;23.00;20.00;;;;;23.94;77.22;100435.14;110496;1264;14839;-48
2022/08/20 04:31:59;;;;;;;;;25.33;22.67;;;;;23.86;77.44;100435.50;110513;1264;15404;-50
2022/08/20 04:34:28;;;;;;;;;27.00;24.50;;;;;23.75;78.07;100429.05;110545;1264;14333;-49
2022/08/20 04:36:55;;;;;;;;;27.50;23.50;;;;;23.78;78.11;100425.98;110580;1264;13155;-48
2022/08/20 04:39:22;;;;;;;;;23.67;23.00;;;;;23.75;78.40;100431.08;110506;1265;15113;-48
2022/08/20 04:41:51;;;;;;;;;24.33;23.00;;;;;23.91;78.03;100427.01;110499;1264;15080;-48
2022/08/20 04:44:21;;;;;;;;;26.67;23.00;;;;;24.12;77.30;100424.41;110517;1264;14690;-49
2022/08/20 04:46:48;;;;;;;;;25.00;23.67;;;;;23.88;77.79;100425.05;110527;1264;14650;-49
2022/08/20 04:49:16;;;;;;;;;25.67;23.33;;;;;23.74;78.66;100420.72;110493;1264;13598;-42
2022/08/20 04:51:43;;;;;;;;;23.50;23.00;;;;;24.04;78.14;100414.75;110548;1265;13552;-44
2022/08/20 04:54:13;;;;;;;;;29.33;28.67;;;;;24.03;77.73;100416.14;110534;1264;13572;-48
2022/08/20 04:56:40;;;;;;;;;27.67;25.33;;;;;23.83;78.53;100412.79;110477;1264;14441;-48
2022/08/20 04:59:08;;;;;;;;;28.50;27.50;;;;;23.83;78.96;100405.30;110481;1264;15659;-47
2022/08/20 05:01:35;;;;;;;;;27.50;26.50;;;;;23.87;78.79;100403.78;110548;1262;15021;-51
2022/08/20 05:04:02;;;;;;;;;27.50;27.00;;;;;23.94;78.64;100405.79;110672;1262;13180;-51
2022/08/20 05:06:30;;;;;;;;;29.00;28.00;;;;;24.09;78.08;100405.45;110617;1261;13082;-47
2022/08/20 05:08:57;;;;;;;;;26.00;23.67;;;;;24.13;77.80;100403.23;110657;1261;13208;-48
2022/08/20 05:11:25;;;;;;;;;32.33;28.33;;;;;24.19;77.57;100399.06;110694;1261;13226;-46
2022/08/20 05:13:52;;;;;;;;;28.33;26.33;;;;;24.30;77.25;100402.04;110670;1262;13088;-48
2022/08/20 05:16:20;;;;;;;;;27.67;25.00;;;;;24.25;77.33;100400.11;110043;1261;879418;-48
2022/08/20 05:18:47;;;;;;;;;31.33;28.00;;;;;24.64;76.08;100397.25;110701;1261;11945;-47
2022/08/20 05:21:15;;;;;;;;;27.67;25.67;;;;;24.49;75.84;100401.84;110670;1262;14828;-48
2022/08/20 05:23:42;;;;;;;;;26.67;25.00;;;;;24.20;76.81;100412.73;110712;1261;14547;-49
2022/08/20 05:26:09;;;;;;;;;27.00;25.00;;;;;24.14;77.28;100421.85;110657;1262;13226;-49
2022/08/20 05:28:37;;;;;;;;;26.33;24.33;;;;;24.26;77.09;100428.76;110611;1262;14377;-49
2022/08/20 05:31:06;;;;;;;;;35.00;30.00;;;;;24.30;77.10;100432.67;110635;1262;13112;-49
2022/08/20 05:33:33;;;;;;;;;38.00;34.50;;;;;24.16;77.91;100436.42;110560;1264;13287;-50
2022/08/20 05:36:01;;;;;;;;;45.67;38.33;;;;;23.93;79.56;100440.61;110510;1264;15298;-47
2022/08/20 05:38:29;;;;;;;;;41.67;37.67;;;;;23.95;79.94;100439.28;110524;1264;14088;-48
2022/08/20 05:40:57;;;;;;;;;47.00;40.00;;;;;24.03;79.96;100441.83;110571;1264;13267;-47
2022/08/20 05:43:24;;;;;;;;;50.00;40.50;;;;;24.00;79.99;100442.58;110671;1262;15036;-49
2022/08/20 05:45:51;;;;;;;;;42.33;39.33;;;;;24.15;79.99;100443.02;110662;1262;11727;-49
2022/08/20 05:48:18;;;;;;;;;44.67;38.67;;;;;24.32;79.11;100449.11;110656;1261;14307;-48
2022/08/20 05:50:47;;;;;;;;;42.67;39.33;;;;;24.34;78.80;100449.98;110704;1261;12913;-48
2022/08/20 05:53:15;;;;;;;;;45.67;40.67;;;;;24.33;78.75;100452.80;110586;1261;14218;-48
2022/08/20 05:55:42;;;;;;;;;48.33;42.67;;;;;24.24;79.20;100453.09;110576;1261;13931;-48
2022/08/20 05:58:09;;;;;;;;;42.00;39.00;;;;;24.33;79.20;100457.75;110543;1261;14647;-53
2022/08/20 06:00:37;;;;;;;;;46.67;39.67;;;;;24.50;78.44;100458.83;110570;1262;10843;-48
2022/08/20 06:05:49;;;;;;;;;39.67;35.00;;;;;24.34;79.02;100460.89;110509;1264;15585;-48
2022/08/20 06:08:17;;;;;;;;;45.67;38.33;;;;;24.43;78.75;100465.64;110522;1264;14750;-48
2022/08/20 06:10:45;;;;;;;;;51.33;38.00;;;;;24.50;78.45;100464.86;110480;1265;14151;-49
2022/08/20 06:13:12;;;;;;;;;40.67;36.00;;;;;24.54;78.41;100470.92;110467;1264;17012;-48
2022/08/20 06:15:39;;;;;;;;;36.00;32.33;;;;;24.51;78.31;100468.22;110543;1264;13256;-49
2022/08/20 06:18:07;;;;;;;;;37.67;35.67;;;;;24.51;78.45;100466.25;110526;1265;15158;-48
2022/08/20 06:20:35;;;;;;;;;39.50;37.00;;;;;24.49;78.48;100461.40;110466;1264;15392;-49
2022/08/20 06:23:02;;;;;;;;;38.67;35.67;;;;;24.50;78.41;100459.59;110487;1264;15258;-47
2022/08/20 06:25:29;;;;;;;;;40.67;36.33;;;;;24.63;78.13;100459.30;110498;1264;14985;-47
2022/08/20 06:27:56;;;;;;;;;43.33;37.00;;;;;24.75;77.59;100462.85;110505;1264;13333;-48
2022/08/20 06:30:24;;;;;;;;;46.00;37.50;;;;;24.74;77.47;100464.30;110482;1265;15353;-49
2022/08/20 06:32:52;;;;;;;;;40.33;37.00;;;;;24.77;77.59;100460.88;110543;1264;14753;-48
2022/08/20 06:35:19;;;;;;;;;37.67;33.67;;;;;24.82;77.52;100460.21;110481;1264;15348;-50
2022/08/20 06:37:47;;;;;;;;;38.33;35.00;;;;;24.81;77.16;100456.76;110463;1265;16000;-48
2022/08/20 06:40:15;;;;;;;;;43.00;38.00;;;;;24.71;77.22;100461.30;110452;1264;14800;-48
2022/08/20 06:42:44;;;;;;;;;33.33;29.67;;;;;24.68;77.58;100454.88;110488;1265;13415;-48
2022/08/20 06:45:11;;;;;;;;;36.67;31.00;;;;;24.72;77.51;100455.48;110491;1264;15391;-49
2022/08/20 06:47:38;;;;;;;;;32.00;28.33;;;;;24.78;77.31;100458.81;110475;1264;14382;-47
2022/08/20 06:50:06;;;;;;;;;31.33;29.67;;;;;24.86;76.86;100460.20;110478;1264;14682;-50
2022/08/20 06:52:33;;;;;;;;;33.00;31.00;;;;;24.96;76.52;100459.48;110471;1264;15215;-48
2022/08/20 06:55:01;;;;;;;;;31.00;28.00;;;;;25.11;75.96;100458.73;110562;1264;13132;-49
2022/08/20 06:57:28;;;;;;;;;30.33;27.67;;;;;25.18;75.39;100458.11;110520;1264;15240;-48
2022/08/20 06:59:55;;;;;;;;;31.50;29.00;;;;;25.09;75.57;100455.89;110544;1265;16004;-47
2022/08/20 07:02:23;;;;;;;;;30.00;28.00;;;;;25.02;75.46;100453.20;110532;1264;14693;-51
2022/08/20 07:04:51;;;;;;;;;31.33;28.00;;;;;25.11;75.43;100455.38;110525;1264;14448;-48
2022/08/20 07:07:18;;;;;;;;;30.50;29.00;;;;;25.09;75.41;100459.17;110463;1264;14727;-47
2022/08/20 07:09:46;;;;;;;;;29.00;27.00;;;;;25.26;74.74;100455.14;110425;1264;13268;-48
2022/08/20 07:12:13;;;;;;;;;27.00;25.33;;;;;25.33;74.34;100454.52;110462;1265;14775;-50
2022/08/20 07:14:40;;;;;;;;;32.00;27.33;;;;;25.41;73.88;100454.73;110348;1264;15108;-48
2022/08/20 07:17:07;;;;;;;;;32.00;30.00;;;;;25.39;73.59;100458.28;110464;1264;15079;-48
2022/08/20 07:19:35;;;;;;;;;31.00;28.00;;;;;25.35;73.99;100460.06;110481;1264;15151;-48
2022/08/20 07:22:02;;;;;;;;;34.00;31.00;;;;;25.34;73.97;100461.20;110542;1264;13118;-48
2022/08/20 07:24:29;;;;;;;;;31.67;27.00;;;;;25.36;73.93;100455.92;110387;1264;13144;-49
2022/08/20 07:26:57;;;;;;;;;34.00;28.33;;;;;25.43;73.75;100457.42;110426;1264;13957;-48
2022/08/20 07:32:33;;;;;;;;;26.67;26.00;;;;;25.43;73.49;100458.11;110479;1264;13891;-47
2022/08/20 07:34:57;;;;;;;;;34.00;30.67;;;;;25.31;73.67;100460.70;110390;1264;15496;-48
2022/08/20 07:37:24;;;;;;;;;29.00;27.33;;;;;25.31;73.72;100461.34;110343;1263;13197;-49
2022/08/20 07:39:52;;;;;;;;;27.50;25.00;;;;;25.33;73.55;100460.77;110500;1264;13304;-49
2022/08/20 07:42:19;;;;;;;;;27.00;25.67;;;;;25.36;73.42;100457.79;110378;1264;15198;-48
2022/08/20 07:44:47;;;;;;;;;29.00;27.00;;;;;25.36;73.42;100458.70;110450;1264;13658;-47
2022/08/20 07:47:15;;;;;;;;;31.33;29.00;;;;;25.30;73.67;100460.41;110496;1265;14703;-47
2022/08/20 07:49:42;;;;;;;;;35.00;31.00;;;;;25.26;73.82;100460.08;110495;1264;14455;-46
2022/08/20 07:52:09;;;;;;;;;46.00;35.33;;;;;25.32;73.86;100463.87;110515;1265;14718;-54
2022/08/20 07:54:38;;;;;;;;;39.00;35.00;;;;;25.45;73.41;100462.58;110511;1264;13237;-49
2022/08/20 07:57:06;;;;;;;;;38.67;32.67;;;;;25.38;73.63;100463.19;110526;1264;15206;-50
2022/08/20 07:59:33;;;;;;;;;33.00;32.00;;;;;25.40;73.53;100469.00;110519;1264;15217;-48
2022/08/20 08:02:00;;;;;;;;;35.33;32.00;;;;;25.51;73.18;100466.98;110511;1264;15148;-47
2022/08/20 08:04:27;;;;;;;;;33.00;28.00;;;;;25.59;72.84;100468.23;110526;1264;16602;-50
2022/08/20 08:06:58;;;;;;;;;40.33;36.00;;;;;25.40;73.42;100474.40;110523;1264;13184;-45
2022/08/20 08:09:26;;;;;;;;;46.67;39.33;;;;;25.41;73.73;100479.30;110495;1264;17637;-47
2022/08/20 08:11:56;;;;;;;;;41.00;35.67;;;;;25.40;73.70;100475.70;110526;1265;15587;-49
2022/08/20 08:14:25;;;;;;;;;37.33;32.67;;;;;25.30;74.08;100475.09;110430;1265;15038;-50
2022/08/20 08:16:52;;;;;;;;;33.33;29.33;;;;;25.34;73.96;100469.69;110478;1264;14897;-45
2022/08/20 08:19:20;;;;;;;;;38.33;31.00;;;;;25.26;74.09;100469.45;110420;1265;14131;-49
2022/08/20 08:21:47;;;;;;;;;31.33;28.67;;;;;25.28;74.26;100478.69;110507;1264;13249;-51
2022/08/20 08:24:16;;;;;;;;;41.00;34.00;;;;;25.30;74.35;100483.61;110360;1264;14910;-53
2022/08/20 08:26:44;;;;;;;;;38.00;33.33;;;;;25.31;74.16;100486.91;110441;1264;14870;-48
2022/08/20 08:29:11;;;;;;;;;37.50;34.00;;;;;25.29;74.17;100487.29;110518;1265;14909;-48
2022/08/20 08:31:39;;;;;;;;;29.00;26.67;;;;;25.29;74.24;100486.23;110530;1264;14804;-48
2022/08/20 08:34:07;;;;;;;;;29.33;28.33;;;;;25.33;73.87;100490.57;110525;1264;13427;-46
2022/08/20 08:36:34;;;;;;;;;31.50;26.00;;;;;25.36;73.59;100479.81;110493;1264;14845;-48
2022/08/20 08:39:01;;;;;;;;;35.50;28.00;;;;;25.40;73.31;100482.94;110453;1265;15292;-49
2022/08/20 08:41:30;;;;;;;;;35.00;28.00;;;;;25.40;72.99;100483.23;110510;1264;14748;-47
2022/08/20 08:43:57;;;;;;;;;30.00;27.00;;;;;25.52;72.60;100481.85;110523;1264;14747;-49
2022/08/20 08:46:24;;;;;;;;;27.67;26.67;;;;;25.41;71.95;100482.52;110514;1264;14283;-48
2022/08/20 08:48:52;;;;;;;;;27.00;26.33;;;;;25.41;71.72;100489.17;110578;1264;13471;-49
2022/08/20 08:51:19;;;;;;;;;27.50;25.00;;;;;25.37;71.14;100492.39;110513;1264;15415;-47
2022/08/20 08:53:47;;;;;;;;;33.00;30.00;;;;;25.41;70.98;100499.39;110481;1264;14541;-48
2022/08/20 08:56:14;;;;;;;;;28.33;26.67;;;;;25.53;70.61;100499.40;110420;1264;15459;-48
2022/08/20 08:58:42;;;;;;;;;29.00;27.67;;;;;25.79;70.24;100503.21;110430;1264;18125;-48
2022/08/20 09:01:11;;;;;;;;;29.33;27.33;;;;;25.86;69.75;100506.96;110499;1264;13132;-48
2022/08/20 09:03:38;;;;;;;;;33.00;28.00;;;;;25.75;70.02;100509.08;110702;1262;13176;-49
2022/08/20 09:06:06;;;;;;;;;24.67;21.33;;;;;25.55;70.59;100506.38;110609;1262;15644;-49
2022/08/20 09:08:33;;;;;;;;;34.67;28.67;;;;;25.62;70.72;100506.09;110596;1262;16144;-49
2022/08/20 09:11:00;;;;;;;;;53.50;43.50;;;;;25.76;70.62;100501.46;110653;1262;16265;-48
2022/08/20 09:13:28;;;;;;;;;85.33;69.00;;;;;25.75;70.73;100501.65;110603;1262;15018;-48
2022/08/20 09:15:55;;;;;;;;;100.00;91.00;;;;;25.84;70.90;100501.89;110599;1262;12593;-48
2022/08/20 09:18:22;;;;;;;;;59.50;48.50;;;;;25.95;71.22;100496.98;110472;1262;15015;-48
2022/08/20 09:20:50;;;;;;;;;46.33;39.67;;;;;25.98;70.86;100498.67;110567;1262;15785;-50
2022/08/20 09:23:17;;;;;;;;;41.50;35.00;;;;;25.86;71.23;100499.23;110611;1262;15277;-49
2022/08/20 09:25:44;;;;;;;;;36.00;32.00;;;;;25.85;71.19;100497.19;110558;1261;15185;-50
2022/08/20 09:28:12;;;;;;;;;39.67;35.00;;;;;25.78;71.10;100498.95;110633;1262;13495;-49
2022/08/20 09:30:39;;;;;;;;;42.33;37.33;;;;;25.92;70.99;100497.17;110577;1261;13381;-49
2022/08/20 09:33:06;;;;;;;;;44.00;37.33;;;;;25.95;70.98;100498.16;110638;1262;15298;-50
2022/08/20 09:35:34;;;;;;;;;41.00;34.00;;;;;26.13;70.87;100496.74;110617;1262;13202;-48
2022/08/20 09:38:01;;;;;;;;;44.00;36.00;;;;;26.19;70.94;100496.20;110668;1262;14843;-52
2022/08/20 09:40:29;;;;;;;;;40.00;35.33;;;;;26.18;71.12;100495.23;110567;1261;14149;-54
2022/08/20 09:42:56;;;;;;;;;40.33;36.33;;;;;26.22;71.05;100494.55;110688;1262;13136;-50
2022/08/20 09:45:23;;;;;;;;;43.33;37.33;;;;;26.29;70.58;100491.80;110607;1261;16053;-48
2022/08/20 09:47:50;;;;;;;;;39.67;35.00;;;;;26.39;70.49;100488.92;110650;1261;15702;-48
2022/08/20 09:50:18;;;;;;;;;40.33;35.00;;;;;26.50;70.32;100490.40;110514;1262;17525;-50
2022/08/20 09:52:45;;;;;;;;;43.00;37.00;;;;;26.57;70.10;100493.69;110370;1262;13185;-48
2022/08/20 09:55:12;;;;;;;;;46.00;38.00;;;;;26.58;69.83;100491.19;110707;1262;15083;-50
2022/08/20 09:57:40;;;;;;;;;38.50;35.00;;;;;26.67;69.65;100484.86;110682;1262;14632;-48
2022/08/20 10:00:07;;;;;;;;;39.00;35.00;;;;;26.78;69.49;100483.27;110662;1261;15740;-51
2022/08/20 10:02:34;;;;;;;;;44.67;38.00;;;;;26.93;69.37;100485.17;110669;1262;15048;-48
2022/08/20 10:05:01;;;;;;;;;83.33;64.00;;;;;27.17;69.37;100486.81;110691;1262;15276;-49
2022/08/20 10:07:29;;;;;;;;;75.67;58.33;;;;;27.19;67.93;100485.20;110697;1261;14908;-50
2022/08/20 10:09:57;;;;;;;;;49.33;39.67;;;;;27.25;67.37;100483.41;110637;1261;11890;-49
2022/08/20 10:12:24;;;;;;;;;44.00;36.67;;;;;27.33;67.09;100490.05;110659;1261;15540;-49
2022/08/20 10:14:51;;;;;;;;;40.00;35.00;;;;;27.30;67.14;100483.18;110684;1261;15062;-48
2022/08/20 10:17:18;;;;;;;;;43.00;35.00;;;;;27.34;67.41;100484.20;110662;1261;15532;-49
2022/08/20 10:19:45;;;;;;;;;54.00;44.00;;;;;27.31;67.72;100483.23;110687;1261;14403;-49
2022/08/20 10:22:13;;;;;;;;;54.00;44.67;;;;;27.24;67.98;100481.89;110743;1261;10491;-57
2022/08/20 10:24:40;;;;;;;;;46.00;37.00;;;;;27.28;67.59;100483.00;110711;1262;13208;-48
2022/08/20 10:27:07;;;;;;;;;42.00;36.00;;;;;27.33;67.10;100482.39;110634;1262;15235;-49
2022/08/20 10:29:35;;;;;;;;;45.00;37.00;;;;;27.35;66.95;100478.73;110670;1261;14176;-48
2022/08/20 10:32:02;;;;;;;;;42.00;35.67;;;;;27.38;66.95;100479.46;110664;1262;13930;-50
2022/08/20 10:34:29;;;;;;;;;35.00;33.67;;;;;27.38;66.57;100481.27;110677;1262;14945;-50
2022/08/20 10:36:57;;;;;;;;;36.00;33.00;;;;;27.38;66.24;100477.17;110679;1262;13297;-48
2022/08/20 10:39:25;;;;;;;;;47.33;37.00;;;;;27.33;66.17;100475.41;110669;1262;15012;-48
2022/08/20 10:41:52;;;;;;;;;38.67;34.00;;;;;27.37;65.96;100475.95;110694;1262;14749;-48
2022/08/20 10:44:19;;;;;;;;;36.67;31.67;;;;;27.45;65.53;100477.41;110685;1262;15135;-48
2022/08/20 10:46:47;;;;;;;;;36.00;33.50;;;;;27.41;65.40;100470.58;110699;1261;14776;-49
2022/08/20 10:49:14;;;;;;;;;36.33;31.00;;;;;27.35;65.46;100474.16;110716;1261;11979;-47
2022/08/20 10:51:41;;;;;;;;;35.33;33.67;;;;;27.33;65.61;100472.27;110704;1261;13218;-50
2022/08/20 10:54:08;;;;;;;;;29.67;26.33;;;;;27.37;65.23;100470.25;110675;1262;14083;-52
2022/08/20 10:56:36;;;;;;;;;31.00;29.00;;;;;27.35;64.71;100467.42;110643;1261;15012;-47
2022/08/20 10:59:03;;;;;;;;;39.00;35.00;;;;;27.34;64.57;100467.90;110696;1261;14672;-49
2022/08/20 11:01:30;;;;;;;;;47.33;39.67;;;;;27.42;64.35;100468.92;110679;1261;15002;-52
2022/08/20 11:03:57;;;;;;;;;44.00;37.00;;;;;27.49;63.44;100467.73;110717;1262;11729;-49
2022/08/20 11:06:25;;;;;;;;;35.67;33.67;;;;;27.51;62.79;100468.36;110686;1262;14765;-48
2022/08/20 11:08:52;;;;;;;;;31.50;27.50;;;;;27.45;62.18;100468.17;110680;1261;13787;-48
2022/08/20 11:11:19;;;;;;;;;32.00;28.00;;;;;27.38;62.13;100467.69;110702;1261;15165;-50